createdAt,value
2023-05-09T00:01:59.609Z,101332.99
2023-05-09T00:04:26.863Z,101334.60
2023-05-09T00:06:53.988Z,101332.52
2023-05-09T00:09:21.083Z,101335.54
2023-05-09T00:11:48.124Z,101336.95
2023-05-09T00:14:15.167Z,101336.60
2023-05-09T00:16:42.224Z,101335.56
2023-05-09T00:19:10.099Z,101342.25
2023-05-09T00:21:37.128Z,101343.83
2023-05-09T00:24:04.397Z,101342.77
2023-05-09T00:26:31.359Z,101346.80
2023-05-09T00:28:58.408Z,101347.14
2023-05-09T00:31:25.510Z,101349.77
2023-05-09T00:33:54.257Z,101350.63
2023-05-09T00:36:21.562Z,101353.80
2023-05-09T00:38:49.250Z,101352.56
2023-05-09T00:41:16.268Z,101354.16
2023-05-09T00:43:43.295Z,101356.64
2023-05-09T00:46:10.489Z,101353.30
2023-05-09T00:48:37.564Z,101353.67
2023-05-09T00:51:05.150Z,101348.59
2023-05-09T00:53:32.158Z,101349.66
2023-05-09T00:55:59.709Z,101350.56
2023-05-09T00:58:26.703Z,101347.24
2023-05-09T01:00:53.697Z,101350.26
2023-05-09T01:03:20.781Z,101347.13
2023-05-09T01:05:53.100Z,101349.59
2023-05-09T01:08:52.681Z,101350.50
2023-05-09T01:11:24.194Z,101348.94
2023-05-09T01:14:00.736Z,101347.55
2023-05-09T01:17:09.526Z,101345.30
2023-05-09T01:19:58.049Z,101341.45
2023-05-09T01:22:30.062Z,101343.39
2023-05-09T01:25:38.899Z,101337.97
2023-05-09T01:28:13.155Z,101334.44
2023-05-09T01:30:42.279Z,101339.54
2023-05-09T01:33:09.284Z,101339.03
2023-05-09T01:35:37.317Z,101340.81
2023-05-09T01:38:10.553Z,101338.70
2023-05-09T01:40:37.616Z,101342.08
2023-05-09T01:43:07.281Z,101344.19
2023-05-09T01:45:34.456Z,101345.42
2023-05-09T01:48:01.536Z,101343.66
2023-05-09T01:50:32.963Z,101345.08
2023-05-09T01:53:00.008Z,101344.05
2023-05-09T01:55:28.971Z,101339.72
2023-05-09T03:01:39.874Z,101363.02
2023-05-09T03:04:08.995Z,101364.36
2023-05-09T03:06:36.502Z,101366.15
2023-05-09T03:09:03.727Z,101370.55
2023-05-09T03:11:31.130Z,101368.09
2023-05-09T03:13:58.409Z,101373.17
2023-05-09T03:16:25.526Z,101375.10
2023-05-09T03:18:52.598Z,101372.92
2023-05-09T03:21:19.607Z,101377.41
2023-05-09T03:23:46.667Z,101379.45
2023-05-09T03:26:13.655Z,101379.02
2023-05-09T03:28:41.044Z,101385.98
2023-05-09T03:31:08.124Z,101383.08
2023-05-09T03:33:35.188Z,101383.00
2023-05-09T03:36:02.694Z,101384.65
2023-05-09T03:38:29.781Z,101388.02
2023-05-09T03:40:56.961Z,101387.36
2023-05-09T03:43:24.046Z,101388.77
2023-05-09T03:45:51.132Z,101388.11
2023-05-09T03:48:18.296Z,101394.27
2023-05-09T03:50:49.208Z,101393.55
2023-05-09T03:53:16.369Z,101397.63
2023-05-09T03:55:44.486Z,101405.71
2023-05-09T03:58:12.694Z,101410.60
2023-05-09T04:00:41.292Z,101410.25
2023-05-09T04:03:11.084Z,101411.39
2023-05-09T04:05:41.113Z,101408.52
2023-05-09T04:08:12.649Z,101409.89
2023-05-09T04:10:39.637Z,101406.84
2023-05-09T04:13:06.752Z,101408.86
2023-05-09T04:15:34.922Z,101410.84
2023-05-09T04:18:02.355Z,101408.98
2023-05-09T04:20:29.503Z,101409.54
2023-05-09T04:22:57.335Z,101414.98
2023-05-09T04:25:24.741Z,101412.08
2023-05-09T04:27:52.018Z,101416.41
2023-05-09T04:30:19.133Z,101414.66
2023-05-09T04:32:47.032Z,101415.42
2023-05-09T04:35:14.698Z,101413.52
2023-05-09T04:37:44.672Z,101413.42
2023-05-09T04:40:12.394Z,101414.23
2023-05-09T04:42:44.118Z,101412.84
2023-05-09T04:45:12.095Z,101411.48
2023-05-09T04:47:39.317Z,101412.17
2023-05-09T04:50:08.277Z,101408.79
2023-05-09T04:52:35.422Z,101409.46
2023-05-09T04:55:02.642Z,101413.50
2023-05-09T04:57:32.993Z,101412.03
2023-05-09T05:00:00.027Z,101411.55
2023-05-09T05:02:27.516Z,101410.36
2023-05-09T05:05:06.205Z,101406.84
2023-05-09T05:07:38.549Z,101412.20
2023-05-09T05:10:06.716Z,101411.46
2023-05-09T05:12:34.734Z,101410.11
2023-05-09T05:15:02.287Z,101417.02
2023-05-09T05:17:29.836Z,101420.02
2023-05-09T05:19:58.320Z,101415.58
2023-05-09T05:22:27.163Z,101416.45
2023-05-09T05:24:54.211Z,101419.79
2023-05-09T05:27:21.721Z,101420.27
2023-05-09T05:29:49.020Z,101420.46
2023-05-09T05:32:16.143Z,101420.77
2023-05-09T05:34:43.225Z,101427.73
2023-05-09T05:37:10.729Z,101427.70
2023-05-09T05:39:37.851Z,101423.17
2023-05-09T05:42:04.992Z,101420.13
2023-05-09T05:44:32.083Z,101422.48
2023-05-09T05:46:59.167Z,101421.14
2023-05-09T05:49:26.753Z,101423.30
2023-05-09T05:51:53.812Z,101425.73
2023-05-09T05:54:22.135Z,101429.67
2023-05-09T05:56:49.269Z,101430.88
2023-05-09T05:59:16.501Z,101430.59
2023-05-09T06:01:43.815Z,101429.17
2023-05-09T06:04:10.975Z,101428.28
2023-05-09T06:06:38.057Z,101428.23
2023-05-09T06:09:05.122Z,101431.20
2023-05-09T06:11:32.184Z,101426.83
2023-05-09T06:13:59.469Z,101423.52
2023-05-09T06:16:28.194Z,101423.05
2023-05-09T06:18:56.063Z,101423.54
2023-05-09T06:21:23.873Z,101424.30
2023-05-09T06:24:06.435Z,101426.63
2023-05-09T06:26:37.211Z,101428.02
2023-05-09T06:29:06.247Z,101425.73
2023-05-09T06:31:36.148Z,101429.02
2023-05-09T06:34:03.180Z,101424.94
2023-05-09T06:36:30.874Z,101428.64
2023-05-09T06:38:58.128Z,101427.84
2023-05-09T06:41:25.135Z,101424.96
2023-05-09T06:43:55.239Z,101427.23
2023-05-09T06:46:22.341Z,101422.11
2023-05-09T06:48:49.473Z,101420.62
2023-05-09T06:51:16.872Z,101420.16
2023-05-09T06:53:43.906Z,101424.35
2023-05-09T06:56:10.967Z,101424.52
2023-05-09T06:58:37.980Z,101425.10
2023-05-09T07:01:05.307Z,101424.54
2023-05-09T07:03:32.300Z,101425.11
2023-05-09T07:06:00.126Z,101427.25
2023-05-09T07:08:27.482Z,101424.63
2023-05-09T07:10:54.478Z,101427.41
2023-05-09T07:13:21.599Z,101423.63
2023-05-09T07:15:48.920Z,101423.52
2023-05-09T07:18:16.013Z,101419.70
2023-05-09T07:20:43.021Z,101418.27
2023-05-09T07:23:10.026Z,101417.13
2023-05-09T07:25:37.016Z,101414.77
2023-05-09T07:28:04.202Z,101422.20
2023-05-09T07:30:31.261Z,101422.96
2023-05-09T07:32:58.361Z,101414.89
2023-05-09T07:35:25.462Z,101418.89
2023-05-09T07:37:52.458Z,101414.20
2023-05-09T07:40:19.530Z,101409.73
2023-05-09T07:42:50.123Z,101405.58
2023-05-09T07:45:18.816Z,101404.41
2023-05-09T07:47:47.195Z,101402.80
2023-05-09T07:50:14.197Z,101398.73
2023-05-09T07:52:41.265Z,101392.83
2023-05-09T07:55:08.729Z,101392.35
2023-05-09T07:57:35.878Z,101389.29
2023-05-09T08:00:02.871Z,101383.61
2023-05-09T08:02:40.896Z,101382.80
2023-05-09T08:05:11.734Z,101376.48
2023-05-09T08:07:38.896Z,101370.08
2023-05-09T08:10:07.238Z,101369.34
2023-05-09T08:12:34.259Z,101363.91
2023-05-09T08:15:01.347Z,101367.84
2023-05-09T08:17:28.459Z,101364.20
2023-05-09T08:19:55.694Z,101360.83
2023-05-09T08:22:22.705Z,101360.41
2023-05-09T08:24:49.698Z,101355.39
2023-05-09T08:27:16.791Z,101355.67
2023-05-09T08:29:43.866Z,101351.63
2023-05-09T08:32:10.919Z,101351.82
2023-05-09T08:34:38.038Z,101352.08
2023-05-09T08:37:05.077Z,101348.48
2023-05-09T08:39:32.138Z,101353.14
2023-05-09T08:42:00.013Z,101344.58
2023-05-09T08:44:28.284Z,101342.22
2023-05-09T08:46:56.892Z,101337.99
2023-05-09T08:49:24.027Z,101332.40
2023-05-09T08:51:51.143Z,101340.45
2023-05-09T08:54:20.700Z,101335.86
2023-05-09T08:56:49.604Z,101336.82
2023-05-09T08:59:17.212Z,101340.56
2023-05-09T09:01:44.338Z,101333.27
2023-05-09T09:04:14.359Z,101332.17
2023-05-09T09:06:41.771Z,101334.77
2023-05-09T09:09:09.353Z,101331.23
2023-05-09T09:11:36.681Z,101324.77
2023-05-09T09:14:12.190Z,101323.70
2023-05-09T09:16:39.557Z,101322.48
2023-05-09T09:19:07.190Z,101323.88
2023-05-09T09:21:34.263Z,101324.23
2023-05-09T09:24:01.250Z,101327.09
2023-05-09T09:26:31.926Z,101322.77
2023-05-09T09:28:58.995Z,101316.38
2023-05-09T09:31:27.870Z,101316.64
2023-05-09T09:34:05.024Z,101321.03
2023-05-09T09:36:36.906Z,101321.41
2023-05-09T09:39:07.664Z,101318.90
2023-05-09T09:41:38.973Z,101317.65
2023-05-09T09:44:09.621Z,101314.35
2023-05-09T09:46:54.877Z,101319.80
2023-05-09T09:49:26.421Z,101313.73
2023-05-09T09:51:54.972Z,101315.15
2023-05-09T09:54:22.184Z,101307.66
2023-05-09T09:56:51.161Z,101306.77
2023-05-09T09:59:21.025Z,101309.65
2023-05-09T10:01:58.736Z,101313.38
2023-05-09T10:04:29.458Z,101309.27
2023-05-09T10:07:05.266Z,101305.73
2023-05-09T10:09:33.503Z,101309.19
2023-05-09T10:12:06.565Z,101302.58
2023-05-09T10:14:35.613Z,101308.35
2023-05-09T10:17:04.393Z,101308.14
2023-05-09T10:19:32.196Z,101303.83
2023-05-09T10:22:04.576Z,101302.21
2023-05-09T10:24:40.130Z,101300.00
2023-05-09T10:27:12.313Z,101302.54
2023-05-09T10:29:45.076Z,101306.71
2023-05-09T10:32:24.029Z,101304.02
2023-05-09T10:34:53.461Z,101301.02
2023-05-09T10:37:23.491Z,101305.34
2023-05-09T10:39:53.775Z,101301.83
2023-05-09T10:42:21.077Z,101301.63
2023-05-09T10:44:48.440Z,101305.00
2023-05-09T10:47:15.684Z,101305.48
2023-05-09T10:49:43.573Z,101306.15
2023-05-09T10:52:10.720Z,101307.63
2023-05-09T10:54:37.702Z,101300.88
2023-05-09T10:57:06.695Z,101303.00
2023-05-09T10:59:35.936Z,101302.54
2023-05-09T11:02:03.782Z,101305.14
2023-05-09T11:04:32.184Z,101303.80
2023-05-09T11:07:00.387Z,101299.70
2023-05-09T11:09:35.144Z,101298.60
2023-05-09T11:12:05.341Z,101306.73
2023-05-09T11:14:42.498Z,101303.96
2023-05-09T11:17:29.326Z,101300.58
2023-05-09T11:20:01.235Z,101299.89
2023-05-09T11:22:32.499Z,101300.69
2023-05-09T11:25:01.299Z,101295.10
2023-05-09T11:27:29.185Z,101293.42
2023-05-09T11:29:57.722Z,101290.67
2023-05-09T11:32:29.068Z,101288.62
2023-05-09T11:35:15.361Z,101287.78
2023-05-09T11:37:58.439Z,101276.42
2023-05-09T11:40:25.536Z,101280.91
2023-05-09T11:42:57.024Z,101274.88
2023-05-09T11:45:30.054Z,101278.11
2023-05-09T11:47:57.572Z,101282.70
2023-05-09T11:50:24.792Z,101281.74
2023-05-09T11:52:52.189Z,101278.59
2023-05-09T11:55:22.296Z,101272.09
2023-05-09T11:57:53.370Z,101266.75
2023-05-09T12:00:24.886Z,101265.91
2023-05-09T12:02:52.954Z,101266.83
2023-05-09T12:05:21.685Z,101267.44
2023-05-09T12:07:49.047Z,101265.34
2023-05-09T12:10:21.050Z,101262.52
2023-05-09T12:12:49.529Z,101261.89
2023-05-09T12:15:17.376Z,101267.39
2023-05-09T12:17:45.236Z,101260.73
2023-05-09T12:20:12.568Z,101254.58
2023-05-09T12:22:43.427Z,101258.27
2023-05-09T12:25:11.636Z,101257.58
2023-05-09T12:27:39.660Z,101253.78
2023-05-09T12:30:12.171Z,101247.81
2023-05-09T12:32:40.610Z,101251.91
2023-05-09T12:35:09.771Z,101261.91
2023-05-09T12:37:37.078Z,101258.62
2023-05-09T12:40:10.098Z,101253.77
2023-05-09T12:42:37.180Z,101251.67
2023-05-09T12:45:05.039Z,101248.73
2023-05-09T12:47:32.598Z,101254.38
2023-05-09T12:50:00.839Z,101255.83
2023-05-09T12:52:54.703Z,101254.35
2023-05-09T12:55:28.912Z,101258.35
2023-05-09T12:58:01.002Z,101257.77
2023-05-09T13:00:28.040Z,101256.23
2023-05-09T13:02:55.254Z,101259.36
2023-05-09T13:05:24.586Z,101258.02
2023-05-09T13:07:54.953Z,101253.08
2023-05-09T13:10:27.718Z,101253.20
2023-05-09T13:12:54.961Z,101249.58
2023-05-09T13:15:22.847Z,101248.38
2023-05-09T13:17:51.105Z,101249.23
2023-05-09T13:20:19.102Z,101246.01
2023-05-09T13:22:46.720Z,101242.07
2023-05-09T13:25:13.873Z,101243.19
2023-05-09T13:27:41.360Z,101245.08
2023-05-09T13:30:08.712Z,101246.05
2023-05-09T13:32:36.823Z,101245.42
2023-05-09T13:35:06.960Z,101240.60
2023-05-09T13:37:34.904Z,101244.09
2023-05-09T13:40:02.656Z,101239.42
2023-05-09T13:42:29.630Z,101238.98
2023-05-09T13:44:56.773Z,101240.28
2023-05-09T13:47:23.783Z,101239.64
2023-05-09T13:49:50.807Z,101236.39
2023-05-09T13:52:17.837Z,101235.38
2023-05-09T13:54:45.021Z,101233.84
2023-05-09T13:57:12.053Z,101234.95
2023-05-09T13:59:41.362Z,101233.84
2023-05-09T14:02:08.490Z,101230.41
2023-05-09T14:04:35.600Z,101230.91
2023-05-09T14:07:02.698Z,101238.48
2023-05-09T14:09:29.715Z,101236.04
2023-05-09T14:11:57.318Z,101233.36
2023-05-09T14:14:25.190Z,101234.41
2023-05-09T14:16:52.292Z,101227.99
2023-05-09T14:19:19.343Z,101223.95
2023-05-09T14:21:49.226Z,101222.02
2023-05-09T14:24:16.586Z,101229.45
2023-05-09T14:26:43.982Z,101233.70
2023-05-09T14:29:11.166Z,101234.14
2023-05-09T14:31:38.509Z,101231.68
2023-05-09T14:34:06.527Z,101233.19
2023-05-09T14:36:33.553Z,101228.41
2023-05-09T14:39:00.588Z,101228.79
2023-05-09T14:41:27.637Z,101223.97
2023-05-09T14:43:54.721Z,101228.98
2023-05-09T14:46:21.751Z,101229.14
2023-05-09T14:48:48.799Z,101223.55
2023-05-09T14:51:15.826Z,101222.64
2023-05-09T14:53:42.879Z,101221.73
2023-05-09T14:56:11.661Z,101225.71
2023-05-09T14:58:38.828Z,101223.05
2023-05-09T15:01:05.921Z,101222.38
2023-05-09T15:03:33.019Z,101225.02
2023-05-09T15:06:00.166Z,101226.95
2023-05-09T15:08:27.356Z,101226.82
2023-05-09T15:10:54.656Z,101225.88
2023-05-09T15:13:21.853Z,101227.30
2023-05-09T15:15:49.094Z,101230.70
2023-05-09T15:19:08.633Z,101227.16
2023-05-09T15:21:35.900Z,101228.27
2023-05-09T15:24:03.710Z,101228.20
2023-05-09T15:26:30.793Z,101230.64
2023-05-09T15:28:57.977Z,101230.89
2023-05-09T15:31:25.957Z,101235.23
2023-05-09T15:33:53.058Z,101231.34
2023-05-09T15:36:20.134Z,101230.02
2023-05-09T15:38:49.745Z,101234.13
2023-05-09T15:41:17.178Z,101233.95
2023-05-09T15:43:44.352Z,101235.47
2023-05-09T15:46:11.552Z,101234.01
2023-05-09T15:48:38.747Z,101230.05
2023-05-09T15:51:05.927Z,101230.14
2023-05-09T15:53:32.941Z,101229.27
2023-05-09T15:56:00.661Z,101227.67
2023-05-09T15:58:27.681Z,101226.98
2023-05-09T16:00:54.812Z,101227.71
2023-05-09T16:03:22.180Z,101227.35
2023-05-09T16:05:49.417Z,101227.96
2023-05-09T16:08:17.267Z,101226.25
2023-05-09T16:10:44.565Z,101230.19
2023-05-09T16:13:11.827Z,101229.63
2023-05-09T16:15:38.899Z,101226.04
2023-05-09T16:18:05.979Z,101226.19
2023-05-09T16:20:33.081Z,101229.98
2023-05-09T16:23:00.106Z,101231.38
2023-05-09T16:25:27.634Z,101228.35
2023-05-09T16:27:54.620Z,101226.77
2023-05-09T16:30:21.656Z,101227.09
2023-05-09T16:32:48.841Z,101229.65
2023-05-09T16:35:15.998Z,101224.64
2023-05-09T16:37:43.075Z,101229.86
2023-05-09T16:40:11.033Z,101228.91
2023-05-09T16:42:41.452Z,101228.68
2023-05-09T16:45:10.137Z,101228.64
2023-05-09T16:47:37.235Z,101227.73
2023-05-09T16:50:05.057Z,101231.33
2023-05-09T16:52:32.131Z,101232.35
2023-05-09T16:54:59.699Z,101233.59
2023-05-09T16:57:26.658Z,101234.44
2023-05-09T16:59:54.157Z,101238.03
2023-05-09T17:02:21.229Z,101238.99
2023-05-09T17:04:48.939Z,101239.77
2023-05-09T17:07:16.373Z,101241.41
2023-05-09T17:09:43.464Z,101243.86
2023-05-09T17:12:16.577Z,101243.36
2023-05-09T17:14:44.165Z,101244.27
2023-05-09T17:17:11.417Z,101243.20
2023-05-09T17:19:38.492Z,101243.37
2023-05-09T17:22:06.024Z,101246.38
2023-05-09T17:24:33.077Z,101249.87
2023-05-09T17:27:00.058Z,101252.14
2023-05-09T17:29:29.633Z,101251.70
2023-05-09T17:31:57.549Z,101254.51
2023-05-09T17:34:24.715Z,101256.27
2023-05-09T17:36:52.573Z,101257.27
2023-05-09T17:39:19.961Z,101257.40
2023-05-09T17:41:47.439Z,101254.16
2023-05-09T17:44:15.300Z,101256.05
2023-05-09T17:46:42.623Z,101257.63
2023-05-09T17:49:11.217Z,101257.77
2023-05-09T17:51:38.194Z,101260.04
2023-05-09T17:54:05.829Z,101264.41
2023-05-09T17:56:32.812Z,101263.83
2023-05-09T17:58:59.874Z,101262.01
2023-05-09T18:01:27.060Z,101263.96
2023-05-09T18:03:54.364Z,101262.02
2023-05-09T18:06:21.603Z,101264.34
2023-05-09T18:08:49.873Z,101263.41
2023-05-09T18:11:16.918Z,101262.45
2023-05-09T18:13:43.971Z,101262.17
2023-05-09T18:16:11.046Z,101264.89
2023-05-09T18:18:40.196Z,101266.52
2023-05-09T18:21:09.387Z,101265.67
2023-05-09T18:23:37.580Z,101263.24
2023-05-09T18:26:04.803Z,101266.90
2023-05-09T18:28:39.374Z,101266.64
2023-05-09T18:31:07.927Z,101267.81
2023-05-09T18:33:40.697Z,101268.63
2023-05-09T18:36:09.804Z,101266.61
2023-05-09T18:38:38.697Z,101266.72
2023-05-09T18:41:07.204Z,101266.55
2023-05-09T18:43:35.544Z,101267.77
2023-05-09T18:46:05.543Z,101267.80
2023-05-09T18:48:33.189Z,101269.77
2023-05-09T18:51:00.245Z,101272.36
2023-05-09T18:53:29.036Z,101271.98
2023-05-09T18:55:59.243Z,101267.27
2023-05-09T18:58:26.288Z,101265.06
2023-05-09T19:00:55.830Z,101267.73
2023-05-09T19:03:25.436Z,101269.30
2023-05-09T19:05:52.469Z,101271.58
2023-05-09T19:08:19.687Z,101271.91
2023-05-09T19:10:46.791Z,101271.53
2023-05-09T19:13:16.047Z,101271.50
2023-05-09T19:15:43.632Z,101275.56
2023-05-09T19:18:10.849Z,101278.44
2023-05-09T19:20:41.102Z,101274.44
2023-05-09T19:23:08.289Z,101278.94
2023-05-09T19:25:37.036Z,101279.21
2023-05-09T19:28:04.419Z,101280.17
2023-05-09T19:30:31.488Z,101278.69
2023-05-09T19:32:58.681Z,101278.08
2023-05-09T19:35:25.904Z,101280.11
2023-05-09T19:37:52.951Z,101279.14
2023-05-09T19:40:20.194Z,101280.44
2023-05-09T19:42:47.187Z,101279.42
2023-05-09T19:45:14.321Z,101280.34
2023-05-09T19:47:41.908Z,101282.27
2023-05-09T19:50:09.517Z,101284.39
2023-05-09T19:52:37.455Z,101283.85
2023-05-09T19:55:06.171Z,101284.73
2023-05-09T19:57:33.452Z,101287.20
2023-05-09T20:00:00.445Z,101282.97
2023-05-09T20:02:27.509Z,101283.33
2023-05-09T20:04:54.626Z,101280.69
2023-05-09T20:07:21.619Z,101285.43
2023-05-09T20:09:49.010Z,101282.09
2023-05-09T20:12:16.824Z,101282.79
2023-05-09T20:14:44.612Z,101283.16
2023-05-09T20:17:11.630Z,101280.77
2023-05-09T20:19:38.927Z,101282.20
2023-05-09T20:22:06.789Z,101278.91
2023-05-09T20:24:33.878Z,101280.05
2023-05-09T20:27:02.731Z,101279.63
2023-05-09T20:29:29.705Z,101275.70
2023-05-09T20:31:56.737Z,101277.41
2023-05-09T20:34:24.946Z,101280.88
2023-05-09T20:36:55.269Z,101278.54
2023-05-09T20:39:23.273Z,101275.33
2023-05-09T20:41:50.572Z,101276.50
2023-05-09T20:44:18.161Z,101275.22
2023-05-09T20:46:45.679Z,101276.77
2023-05-09T20:49:12.857Z,101276.26
2023-05-09T20:51:39.995Z,101277.97
2023-05-09T20:54:07.144Z,101287.04
2023-05-09T20:56:35.645Z,101282.91
2023-05-09T20:59:04.381Z,101283.70
2023-05-09T21:01:32.684Z,101284.69
2023-05-09T21:03:59.791Z,101290.59
2023-05-09T21:06:26.784Z,101288.95
2023-05-09T21:08:53.781Z,101291.38
2023-05-09T21:11:22.171Z,101287.30
2023-05-09T21:13:49.269Z,101284.99
2023-05-09T21:16:16.507Z,101282.70
2023-05-09T21:18:43.512Z,101283.15
2023-05-09T21:21:10.518Z,101282.15
2023-05-09T21:23:37.495Z,101281.87
2023-05-09T21:26:04.495Z,101280.34
2023-05-09T21:28:31.629Z,101281.44
2023-05-09T21:31:00.923Z,101280.39
2023-05-09T21:33:28.179Z,101280.75
2023-05-09T21:35:55.133Z,101279.16
2023-05-09T21:38:22.208Z,101280.06
2023-05-09T21:40:51.439Z,101277.96
2023-05-09T21:43:19.571Z,101278.46
2023-05-09T21:45:46.568Z,101278.23
2023-05-09T21:48:13.684Z,101276.30
2023-05-09T21:50:40.842Z,101276.45
2023-05-09T21:53:07.836Z,101273.25
2023-05-09T21:55:34.860Z,101273.05
2023-05-09T21:58:01.883Z,101279.52
2023-05-09T22:00:28.841Z,101273.55
2023-05-09T22:02:56.024Z,101281.33
2023-05-09T22:05:23.937Z,101279.80
2023-05-09T22:07:51.756Z,101275.67
2023-05-09T22:10:18.924Z,101276.23
2023-05-09T22:12:46.284Z,101272.71
2023-05-09T22:15:13.401Z,101272.70
2023-05-09T22:17:40.894Z,101270.06
2023-05-09T22:20:09.361Z,101270.92
2023-05-09T22:22:36.436Z,101268.30
2023-05-09T22:25:06.771Z,101264.54
2023-05-09T22:27:33.706Z,101264.23
2023-05-09T22:30:01.623Z,101265.53
2023-05-09T22:32:28.668Z,101263.27
2023-05-09T22:34:55.705Z,101263.14
2023-05-09T22:37:23.722Z,101259.68
2023-05-09T22:39:51.368Z,101258.34
2023-05-09T22:42:18.362Z,101255.37
2023-05-09T22:44:47.434Z,101257.65
2023-05-09T22:47:14.550Z,101254.48
2023-05-09T22:49:42.623Z,101254.14
2023-05-09T22:52:11.008Z,101253.25
2023-05-09T22:54:38.051Z,101249.91
2023-05-09T22:57:05.089Z,101246.61
2023-05-09T22:59:32.390Z,101245.98
2023-05-09T23:01:59.632Z,101246.25
2023-05-09T23:04:26.741Z,101245.75
2023-05-09T23:06:53.784Z,101245.12
2023-05-09T23:09:20.755Z,101240.39
2023-05-09T23:11:48.003Z,101241.45
2023-05-09T23:14:15.033Z,101237.24
2023-05-09T23:16:42.084Z,101236.89
2023-05-09T23:19:09.408Z,101236.20
2023-05-09T23:21:36.426Z,101233.92
2023-05-09T23:24:03.625Z,101234.79
2023-05-09T23:26:30.651Z,101233.54
2023-05-09T23:28:57.664Z,101233.69
2023-05-09T23:31:24.763Z,101232.33
2023-05-09T23:33:51.812Z,101233.73
2023-05-09T23:36:18.837Z,101234.13
2023-05-09T23:38:45.812Z,101233.61
2023-05-09T23:41:12.884Z,101232.77
2023-05-09T23:43:39.903Z,101231.59
2023-05-09T23:46:07.073Z,101232.05
2023-05-09T23:48:34.141Z,101234.07
2023-05-09T23:51:01.177Z,101230.83
2023-05-09T23:53:28.160Z,101233.66
2023-05-09T23:55:55.316Z,101234.42
2023-05-09T23:58:22.385Z,101235.15
